createdAt,value
2023-02-14T00:01:24.084Z,-0.62
2023-02-14T00:04:26.584Z,-0.58
2023-02-14T00:07:29.363Z,-0.62
2023-02-14T00:10:32.016Z,-0.63
2023-02-14T00:44:13.721Z,-0.78
2023-02-14T00:47:16.219Z,-0.79
2023-02-14T00:50:18.897Z,-0.74
2023-02-14T00:53:21.449Z,-0.82
2023-02-14T00:56:24.058Z,-0.86
2023-02-14T00:59:26.973Z,-0.83
2023-02-14T01:02:29.556Z,-0.91
2023-02-14T01:05:32.210Z,-0.91
2023-02-14T01:08:35.494Z,-0.89
2023-02-14T01:11:40.355Z,-0.90
2023-02-14T01:14:43.882Z,-0.93
2023-02-14T01:17:46.355Z,-0.90
2023-02-14T01:20:49.501Z,-0.89
2023-02-14T01:23:54.782Z,-0.90
2023-02-14T01:26:57.271Z,-0.92
2023-02-14T01:30:01.430Z,-1.01
2023-02-14T01:33:05.775Z,-1.05
2023-02-14T01:36:16.082Z,-1.16
2023-02-14T01:39:18.671Z,-1.07
2023-02-14T01:42:21.229Z,-1.06
2023-02-14T01:45:26.837Z,-1.12
2023-02-14T01:48:29.478Z,-1.15
2023-02-14T01:51:32.928Z,-1.21
2023-02-14T01:54:39.846Z,-1.25
2023-02-14T01:57:49.978Z,-1.27
2023-02-14T02:00:59.173Z,-1.31
2023-02-14T02:04:15.991Z,-1.39
2023-02-14T02:07:23.227Z,-1.36
2023-02-14T02:10:25.978Z,-1.42
2023-02-14T02:13:28.451Z,-1.54
2023-02-14T02:17:01.458Z,-1.56
2023-02-14T02:20:22.865Z,-1.61
2023-02-14T02:23:57.501Z,-1.61
2023-02-14T02:27:25.961Z,-1.57
2023-02-14T02:30:35.665Z,-1.56
2023-02-14T02:34:12.703Z,-1.63
2023-02-14T02:37:33.750Z,-1.66
2023-02-14T02:41:09.043Z,-1.65
2023-02-14T02:44:39.973Z,-1.70
2023-02-14T02:48:18.010Z,-1.82
2023-02-14T02:51:59.401Z,-1.88
2023-02-14T02:55:10.445Z,-1.81
2023-02-14T02:58:13.098Z,-1.72
2023-02-14T03:01:21.888Z,-1.74
2023-02-14T03:04:46.036Z,-1.78
2023-02-14T03:07:49.349Z,-1.84
2023-02-14T03:10:53.396Z,-1.82
2023-02-14T03:14:14.616Z,-1.85
2023-02-14T03:17:54.747Z,-1.78
2023-02-14T03:21:31.116Z,-1.84
2023-02-14T03:24:56.127Z,-1.85
2023-02-14T03:28:32.246Z,-1.89
2023-02-14T03:31:40.868Z,-1.91
2023-02-14T03:35:00.137Z,-1.99
2023-02-14T03:38:20.612Z,-2.05
2023-02-14T03:41:31.586Z,-1.92
2023-02-14T03:44:37.996Z,-1.88
2023-02-14T03:47:43.265Z,-1.91
2023-02-14T03:50:49.057Z,-1.97
2023-02-14T03:53:57.784Z,-1.94
2023-02-14T03:57:15.339Z,-1.96
2023-02-14T04:00:18.904Z,-1.94
2023-02-14T04:03:25.070Z,-2.00
2023-02-14T04:06:27.740Z,-1.99
2023-02-14T04:09:30.234Z,-1.95
2023-02-14T04:12:38.077Z,-1.98
2023-02-14T04:15:40.791Z,-2.01
2023-02-14T04:19:01.765Z,-2.00
2023-02-14T04:22:04.284Z,-2.01
2023-02-14T04:25:07.383Z,-1.94
2023-02-14T04:28:09.858Z,-2.02
2023-02-14T04:31:12.473Z,-2.06
2023-02-14T04:34:15.300Z,-2.06
2023-02-14T04:37:19.440Z,-2.04
2023-02-14T04:40:22.748Z,-2.15
2023-02-14T04:43:25.144Z,-2.18
2023-02-14T04:46:27.653Z,-2.29
2023-02-14T04:49:30.308Z,-2.23
2023-02-14T04:52:33.028Z,-2.27
2023-02-14T04:55:35.637Z,-2.31
2023-02-14T04:58:38.552Z,-2.38
2023-02-14T05:01:41.648Z,-2.43
2023-02-14T05:04:44.323Z,-2.47
2023-02-14T05:07:47.888Z,-2.51
2023-02-14T05:10:50.571Z,-2.47
2023-02-14T05:13:53.271Z,-2.54
2023-02-14T05:16:55.710Z,-2.58
2023-02-14T05:19:58.627Z,-2.57
2023-02-14T05:23:03.528Z,-2.46
2023-02-14T05:26:06.314Z,-2.47
2023-02-14T05:29:09.175Z,-2.53
2023-02-14T05:32:11.785Z,-2.52
2023-02-14T05:35:14.357Z,-2.52
2023-02-14T05:38:17.136Z,-2.50
2023-02-14T05:41:19.646Z,-2.44
2023-02-14T05:44:23.100Z,-2.39
2023-02-14T05:47:25.798Z,-2.38
2023-02-14T05:50:29.056Z,-2.43
2023-02-14T05:53:31.526Z,-2.45
2023-02-14T05:56:34.031Z,-2.43
2023-02-14T05:59:37.790Z,-2.48
2023-02-14T06:02:40.356Z,-2.48
2023-02-14T06:05:42.788Z,-2.42
2023-02-14T06:08:45.181Z,-2.37
2023-02-14T06:11:47.662Z,-2.31
2023-02-14T06:14:50.261Z,-2.27
2023-02-14T06:17:57.357Z,-2.22
2023-02-14T06:21:00.278Z,-2.17
2023-02-14T06:24:03.556Z,-2.10
2023-02-14T06:27:06.037Z,-2.07
2023-02-14T06:30:10.513Z,-1.92
2023-02-14T06:33:13.388Z,-1.84
2023-02-14T06:36:16.465Z,-1.75
2023-02-14T06:39:19.021Z,-1.63
2023-02-14T06:42:21.605Z,-1.58
2023-02-14T06:45:35.328Z,-1.50
2023-02-14T06:48:41.611Z,-1.46
2023-02-14T06:51:44.305Z,-1.32
2023-02-14T06:54:46.791Z,-1.22
2023-02-14T06:57:50.722Z,-1.13
2023-02-14T07:00:55.819Z,-1.02
2023-02-14T07:03:58.323Z,-0.93
2023-02-14T07:07:01.527Z,-0.80
2023-02-14T07:10:04.872Z,-0.72
2023-02-14T07:13:07.498Z,-0.61
2023-02-14T07:16:10.925Z,-0.45
2023-02-14T07:19:13.519Z,-0.31
2023-02-14T07:22:16.155Z,0.04
2023-02-14T07:25:18.904Z,0.41
2023-02-14T07:28:21.502Z,0.68
2023-02-14T07:31:24.364Z,0.87
2023-02-14T07:34:27.430Z,1.05
2023-02-14T07:37:31.814Z,1.18
2023-02-14T07:40:34.573Z,1.33
2023-02-14T07:43:39.136Z,1.46
2023-02-14T07:46:42.004Z,1.47
2023-02-14T07:49:45.217Z,1.52
2023-02-14T07:52:48.607Z,1.72
2023-02-14T07:55:52.197Z,1.78
2023-02-14T07:58:55.189Z,1.80
2023-02-14T08:01:57.773Z,1.83
2023-02-14T08:05:00.404Z,1.86
2023-02-14T08:08:03.013Z,1.90
2023-02-14T08:11:05.756Z,2.02
2023-02-14T08:14:18.389Z,2.02
2023-02-14T08:17:58.751Z,2.25
2023-02-14T08:21:11.332Z,2.63
2023-02-14T08:24:17.420Z,2.76
2023-02-14T08:27:21.598Z,2.78
2023-02-14T08:30:24.668Z,2.91
2023-02-14T08:33:27.377Z,2.96
2023-02-14T08:36:39.133Z,2.97
2023-02-14T08:39:42.677Z,3.07
2023-02-14T08:42:45.353Z,3.18
2023-02-14T08:45:49.831Z,3.35
2023-02-14T08:48:54.367Z,3.42
2023-02-14T08:51:56.954Z,3.65
2023-02-14T08:54:59.587Z,3.81
2023-02-14T08:58:02.720Z,3.95
2023-02-14T09:01:13.446Z,4.04
2023-02-14T09:04:16.513Z,4.02
2023-02-14T09:07:19.895Z,4.05
2023-02-14T09:10:23.113Z,4.15
2023-02-14T09:13:25.679Z,4.35
2023-02-14T09:16:28.320Z,4.50
2023-02-14T09:19:35.866Z,4.56
2023-02-14T09:22:38.816Z,4.62
2023-02-14T09:25:41.377Z,4.84
2023-02-14T09:28:44.773Z,4.95
2023-02-14T09:31:48.839Z,5.03
2023-02-14T09:35:11.465Z,5.23
2023-02-14T09:38:14.012Z,5.27
2023-02-14T09:41:25.510Z,5.32
2023-02-14T09:44:32.244Z,5.40
2023-02-14T09:48:00.185Z,5.40
2023-02-14T09:51:07.241Z,5.44
2023-02-14T09:54:18.957Z,5.51
2023-02-14T09:57:30.304Z,5.53
2023-02-14T10:00:41.080Z,5.63
2023-02-14T10:03:59.120Z,5.77
2023-02-14T10:07:29.005Z,5.83
2023-02-14T10:10:51.574Z,5.94
2023-02-14T10:14:29.237Z,6.07
2023-02-14T10:18:06.980Z,6.23
2023-02-14T10:21:16.232Z,6.25
2023-02-14T10:24:33.935Z,6.24
2023-02-14T10:27:51.131Z,6.11
2023-02-14T10:31:24.432Z,6.14
2023-02-14T10:34:48.015Z,6.22
2023-02-14T10:38:08.496Z,6.46
2023-02-14T10:41:27.428Z,6.43
2023-02-14T10:45:10.352Z,6.38
2023-02-14T10:48:13.426Z,6.37
2023-02-14T10:51:33.373Z,6.39
2023-02-14T10:54:43.705Z,6.59
2023-02-14T10:57:51.550Z,6.64
2023-02-14T11:01:05.888Z,6.61
2023-02-14T11:04:13.216Z,6.84
2023-02-14T11:07:18.439Z,7.03
2023-02-14T11:10:30.106Z,6.88
2023-02-14T11:13:38.561Z,6.93
2023-02-14T11:16:41.161Z,7.07
2023-02-14T11:19:57.525Z,7.01
2023-02-14T11:23:00.085Z,7.05
2023-02-14T11:26:05.766Z,7.15
2023-02-14T11:29:21.841Z,7.20
2023-02-14T11:32:28.530Z,7.24
2023-02-14T11:35:37.159Z,7.28
2023-02-14T11:38:41.703Z,7.19
2023-02-14T11:41:50.621Z,7.25
2023-02-14T11:44:58.696Z,7.36
2023-02-14T11:48:27.853Z,7.47
2023-02-14T11:51:42.828Z,7.56
2023-02-14T11:54:49.381Z,7.55
2023-02-14T11:57:52.237Z,7.71
2023-02-14T12:00:54.998Z,7.73
2023-02-14T12:04:01.959Z,7.79
2023-02-14T12:07:18.958Z,7.90
2023-02-14T12:10:24.290Z,8.15
2023-02-14T12:13:26.930Z,8.07
2023-02-14T12:16:43.205Z,8.07
2023-02-14T12:20:03.639Z,8.11
2023-02-14T12:23:17.881Z,8.10
2023-02-14T12:26:35.208Z,8.13
2023-02-14T12:29:43.950Z,8.21
2023-02-14T12:32:56.764Z,8.40
2023-02-14T12:36:07.959Z,8.56
2023-02-14T12:39:19.517Z,8.76
2023-02-14T12:43:03.452Z,8.89
2023-02-14T12:46:19.290Z,9.13
2023-02-14T12:49:59.740Z,9.33
2023-02-14T12:53:39.786Z,9.54
2023-02-14T12:56:45.039Z,9.88
2023-02-14T13:00:23.357Z,10.07
2023-02-14T13:03:52.354Z,10.66
2023-02-14T13:07:03.824Z,11.00
2023-02-14T13:10:42.396Z,11.40
2023-02-14T13:13:51.011Z,12.04
2023-02-14T13:17:11.635Z,12.48
2023-02-14T13:20:26.098Z,12.30
2023-02-14T13:23:35.016Z,12.70
2023-02-14T13:26:43.129Z,12.75
2023-02-14T13:29:58.099Z,13.14
2023-02-14T13:33:10.089Z,13.47
2023-02-14T13:36:13.974Z,12.99
2023-02-14T13:39:36.030Z,13.52
2023-02-14T13:42:47.085Z,13.63
2023-02-14T13:45:54.534Z,14.05
2023-02-14T13:49:00.714Z,14.20
2023-02-14T13:52:05.081Z,13.70
2023-02-14T13:55:16.462Z,13.67
2023-02-14T13:58:22.026Z,13.19
2023-02-14T14:01:42.800Z,13.73
2023-02-14T14:04:45.291Z,13.67
2023-02-14T14:07:47.857Z,13.72
2023-02-14T14:10:56.004Z,13.56
2023-02-14T14:14:23.847Z,13.72
2023-02-14T14:17:27.662Z,13.83
2023-02-14T14:20:38.387Z,13.97
2023-02-14T14:23:41.024Z,13.72
2023-02-14T14:26:47.847Z,13.17
2023-02-14T14:29:56.402Z,12.65
2023-02-14T14:33:17.158Z,13.05
2023-02-14T14:36:23.999Z,12.90
2023-02-14T14:39:32.444Z,12.89
2023-02-14T14:42:38.417Z,12.90
2023-02-14T14:45:41.944Z,12.77
2023-02-14T14:48:50.636Z,12.93
2023-02-14T14:51:53.539Z,12.60
2023-02-14T14:54:57.455Z,12.59
2023-02-14T14:58:05.269Z,12.79
2023-02-14T15:01:13.242Z,13.13
2023-02-14T15:04:31.018Z,13.26
2023-02-14T15:07:34.965Z,12.74
2023-02-14T15:10:37.653Z,12.02
2023-02-14T15:13:53.660Z,11.47
2023-02-14T15:17:02.298Z,11.22
2023-02-14T15:20:10.121Z,10.99
2023-02-14T15:23:22.487Z,10.44
2023-02-14T15:26:31.923Z,9.93
2023-02-14T15:29:34.800Z,9.63
2023-02-14T15:32:38.188Z,9.34
2023-02-14T15:35:42.503Z,9.01
2023-02-14T15:38:51.676Z,8.74
2023-02-14T15:41:55.644Z,8.47
2023-02-14T15:45:22.599Z,8.20
2023-02-14T15:48:33.321Z,7.93
2023-02-14T15:51:37.477Z,7.57
2023-02-14T15:54:44.988Z,7.31
2023-02-14T15:57:55.376Z,6.98
2023-02-14T16:01:00.124Z,6.76
2023-02-14T16:04:05.890Z,6.58
2023-02-14T16:07:27.402Z,6.30
2023-02-14T16:10:32.886Z,6.11
2023-02-14T16:13:37.773Z,5.92
2023-02-14T16:17:01.351Z,5.61
2023-02-14T16:20:21.303Z,5.39
2023-02-14T16:23:27.535Z,5.21
2023-02-14T16:26:31.292Z,5.04
2023-02-14T16:29:36.477Z,4.85
2023-02-14T16:32:39.795Z,4.79
2023-02-14T16:35:42.782Z,4.63
2023-02-14T16:38:46.235Z,4.52
2023-02-14T16:41:50.134Z,4.34
2023-02-14T16:44:53.842Z,4.19
2023-02-14T16:47:56.592Z,4.08
2023-02-14T16:50:59.406Z,3.95
2023-02-14T16:54:08.031Z,3.88
2023-02-14T16:57:19.063Z,3.82
2023-02-14T17:00:22.871Z,3.71
2023-02-14T17:03:26.015Z,3.54
2023-02-14T17:06:32.335Z,3.64
2023-02-14T17:09:41.407Z,3.66
2023-02-14T17:12:47.445Z,3.70
2023-02-14T17:15:50.721Z,3.58
2023-02-14T17:18:53.724Z,3.43
2023-02-14T17:22:00.438Z,3.26
2023-02-14T17:25:06.180Z,3.14
2023-02-14T17:28:08.803Z,3.07
2023-02-14T17:31:11.969Z,2.93
2023-02-14T17:34:14.707Z,2.84
2023-02-14T17:37:19.002Z,2.74
2023-02-14T17:40:21.921Z,2.74
2023-02-14T17:43:24.779Z,2.66
2023-02-14T17:46:31.746Z,2.60
2023-02-14T17:49:34.657Z,2.48
2023-02-14T17:52:38.726Z,2.47
2023-02-14T17:55:41.696Z,2.39
2023-02-14T17:58:47.173Z,2.34
2023-02-14T18:01:51.493Z,2.27
2023-02-14T18:04:55.233Z,2.18
2023-02-14T18:07:58.006Z,2.01
2023-02-14T18:11:05.099Z,1.80
2023-02-14T18:14:08.268Z,1.76
2023-02-14T18:17:13.930Z,1.74
2023-02-14T18:20:16.690Z,1.64
2023-02-14T18:23:19.814Z,1.55
2023-02-14T18:26:23.912Z,1.46
2023-02-14T18:29:26.693Z,1.44
2023-02-14T18:32:29.177Z,1.37
2023-02-14T18:35:31.911Z,1.35
2023-02-14T18:38:35.158Z,1.30
2023-02-14T18:41:37.993Z,1.32
2023-02-14T18:44:41.836Z,1.27
2023-02-14T18:47:44.749Z,1.17
2023-02-14T18:50:47.526Z,1.10
2023-02-14T18:53:54.890Z,1.09
2023-02-14T18:56:58.784Z,1.09
2023-02-14T19:00:06.711Z,0.95
2023-02-14T19:03:09.597Z,0.92
2023-02-14T19:06:13.432Z,0.82
2023-02-14T19:09:17.560Z,0.77
2023-02-14T19:12:20.849Z,0.70
2023-02-14T19:15:23.581Z,0.72
2023-02-14T19:18:26.879Z,0.73
2023-02-14T19:21:32.029Z,0.67
2023-02-14T19:24:34.967Z,0.58
2023-02-14T19:27:37.905Z,0.59
2023-02-14T19:30:40.779Z,0.50
2023-02-14T19:33:46.509Z,0.46
2023-02-14T19:36:50.595Z,0.44
2023-02-14T19:39:53.951Z,0.39
2023-02-14T19:42:56.750Z,0.34
2023-02-14T19:46:04.236Z,0.29
2023-02-14T19:49:07.249Z,0.32
2023-02-14T19:52:26.430Z,0.32
2023-02-14T19:55:30.016Z,0.31
2023-02-14T19:58:33.038Z,0.27
2023-02-14T20:01:46.878Z,0.19
2023-02-14T20:04:49.609Z,0.14
2023-02-14T20:07:55.264Z,0.20
2023-02-14T20:10:58.153Z,0.14
2023-02-14T20:14:02.053Z,0.05
2023-02-14T20:17:07.938Z,0.08
2023-02-14T20:20:13.789Z,0.11
2023-02-14T20:23:16.621Z,-0.03
2023-02-14T20:26:19.589Z,-0.07
2023-02-14T20:29:23.851Z,-0.12
2023-02-14T20:32:27.135Z,-0.11
2023-02-14T20:35:34.081Z,-0.14
2023-02-14T20:38:37.026Z,-0.21
2023-02-14T20:41:39.902Z,-0.18
2023-02-14T20:44:42.860Z,-0.16
2023-02-14T20:47:48.981Z,-0.21
2023-02-14T20:50:52.154Z,-0.36
2023-02-14T20:53:55.140Z,-0.36
2023-02-14T20:56:58.164Z,-0.33
2023-02-14T21:00:01.466Z,-0.42
2023-02-14T21:03:05.980Z,-0.49
2023-02-14T21:06:11.643Z,-0.60
2023-02-14T21:09:16.194Z,-0.57
2023-02-14T21:12:20.674Z,-0.64
2023-02-14T21:15:23.553Z,-0.65
2023-02-14T21:18:26.331Z,-0.58
2023-02-14T21:21:36.730Z,-0.63
2023-02-14T21:24:40.380Z,-0.67
2023-02-14T21:27:43.142Z,-0.74
2023-02-14T21:30:45.712Z,-0.78
2023-02-14T21:33:53.967Z,-0.83
2023-02-14T21:36:56.766Z,-0.85
2023-02-14T21:39:59.599Z,-0.86
2023-02-14T21:43:02.475Z,-0.82
2023-02-14T21:46:11.625Z,-0.82
2023-02-14T21:49:32.606Z,-0.81
2023-02-14T21:52:35.394Z,-0.75
2023-02-14T21:55:38.554Z,-0.80
2023-02-14T21:58:41.355Z,-0.82
2023-02-14T22:01:44.152Z,-0.91
2023-02-14T22:04:46.969Z,-1.00
2023-02-14T22:07:49.513Z,-0.95
2023-02-14T22:10:52.122Z,-1.00
2023-02-14T22:13:55.694Z,-0.98
2023-02-14T22:16:58.188Z,-1.09
2023-02-14T22:20:00.880Z,-1.12
2023-02-14T22:23:03.383Z,-1.08
2023-02-14T22:26:16.819Z,-1.06
2023-02-14T22:29:19.381Z,-1.09
2023-02-14T22:32:21.893Z,-1.13
2023-02-14T22:35:24.562Z,-1.06
2023-02-14T22:38:27.619Z,-1.16
2023-02-14T22:41:30.317Z,-1.22
2023-02-14T22:44:33.031Z,-1.16
2023-02-14T22:47:35.511Z,-1.16
2023-02-14T22:50:38.210Z,-1.18
2023-02-14T22:53:40.684Z,-1.27
2023-02-14T22:56:48.464Z,-1.24
2023-02-14T22:59:50.882Z,-1.30
2023-02-14T23:02:53.572Z,-1.34
2023-02-14T23:05:59.318Z,-1.35
2023-02-14T23:09:04.033Z,-1.27
2023-02-14T23:12:26.528Z,-1.36
2023-02-14T23:15:47.520Z,-1.41
2023-02-14T23:19:08.268Z,-1.39
2023-02-14T23:22:26.040Z,-1.40
2023-02-14T23:25:28.581Z,-1.44
2023-02-14T23:28:31.080Z,-1.48
2023-02-14T23:31:33.655Z,-1.45
2023-02-14T23:34:38.503Z,-1.58
2023-02-14T23:37:41.775Z,-1.62
2023-02-14T23:41:03.026Z,-1.55
2023-02-14T23:44:05.581Z,-1.47
2023-02-14T23:47:10.189Z,-1.56
2023-02-14T23:50:12.794Z,-1.61
2023-02-14T23:53:16.193Z,-1.59
2023-02-14T23:56:18.665Z,-1.57
2023-02-14T23:59:22.181Z,-1.66
